createdAt,value
2018-11-13T00:01:37.047Z,93.25
2018-11-13T00:04:06.628Z,93.60
2018-11-13T00:06:36.098Z,93.77
2018-11-13T00:09:07.730Z,93.29
2018-11-13T00:11:37.447Z,93.18
2018-11-13T00:14:06.925Z,93.92
2018-11-13T00:16:36.356Z,93.71
2018-11-13T00:19:05.980Z,93.38
2018-11-13T00:21:35.454Z,93.68
2018-11-13T00:24:04.988Z,93.21
2018-11-13T00:26:34.427Z,93.83
2018-11-13T00:29:03.908Z,93.83
2018-11-13T00:31:33.357Z,93.69
2018-11-13T00:34:02.876Z,93.76
2018-11-13T00:36:32.271Z,93.29
2018-11-13T00:39:01.824Z,93.71
2018-11-13T00:41:31.277Z,93.69
2018-11-13T00:44:00.777Z,93.84
2018-11-13T00:46:30.219Z,93.73
2018-11-13T00:48:59.635Z,93.95
2018-11-13T00:51:29.084Z,93.58
2018-11-13T00:53:58.637Z,93.57
2018-11-13T00:56:28.097Z,94.06
2018-11-13T00:58:57.603Z,93.87
2018-11-13T01:01:27.112Z,93.75
2018-11-13T01:03:56.560Z,93.61
2018-11-13T01:06:25.946Z,93.23
2018-11-13T01:08:55.479Z,93.98
2018-11-13T01:11:24.956Z,94.18
2018-11-13T01:13:54.387Z,93.86
2018-11-13T01:16:23.874Z,94.11
2018-11-13T01:18:53.300Z,94.09
2018-11-13T01:21:22.806Z,93.23
2018-11-13T01:23:52.358Z,93.92
2018-11-13T01:26:21.808Z,93.67
2018-11-13T01:28:51.283Z,93.67
2018-11-13T01:31:20.739Z,93.25
2018-11-13T01:33:50.196Z,93.96
2018-11-13T01:36:19.613Z,93.40
2018-11-13T01:38:49.100Z,93.88
2018-11-13T01:41:18.532Z,94.04
2018-11-13T01:43:48.031Z,93.75
2018-11-13T01:46:17.589Z,93.91
2018-11-13T01:48:47.070Z,93.95
2018-11-13T01:51:16.547Z,94.05
2018-11-13T01:53:46.056Z,93.89
2018-11-13T01:56:15.768Z,94.10
2018-11-13T01:58:45.208Z,93.87
2018-11-13T02:01:14.703Z,94.14
2018-11-13T02:03:44.307Z,94.01
2018-11-13T02:06:13.880Z,93.89
2018-11-13T02:08:43.339Z,94.20
2018-11-13T02:11:12.743Z,94.33
2018-11-13T02:13:42.375Z,94.27
2018-11-13T02:16:11.966Z,94.28
2018-11-13T02:18:41.411Z,94.50
2018-11-13T02:21:10.884Z,94.13
2018-11-13T02:23:40.376Z,94.36
2018-11-13T02:26:09.872Z,94.61
2018-11-13T02:28:39.311Z,94.09
2018-11-13T02:31:08.729Z,94.14
2018-11-13T02:33:38.200Z,94.50
2018-11-13T02:36:07.664Z,94.71
2018-11-13T02:38:37.113Z,94.74
2018-11-13T02:41:06.615Z,94.42
2018-11-13T02:43:36.041Z,94.92
2018-11-13T02:46:05.564Z,95.01
2018-11-13T02:48:35.099Z,95.01
2018-11-13T02:51:04.584Z,94.92
2018-11-13T02:53:34.073Z,94.52
2018-11-13T02:56:03.577Z,94.77
2018-11-13T02:58:33.005Z,94.78
2018-11-13T03:01:02.510Z,94.86
2018-11-13T03:03:32.004Z,94.75
2018-11-13T03:06:01.490Z,94.68
2018-11-13T03:08:30.958Z,94.96
2018-11-13T03:11:00.413Z,95.06
2018-11-13T03:13:29.878Z,94.70
2018-11-13T03:15:59.280Z,94.67
2018-11-13T03:18:28.696Z,94.94
2018-11-13T03:20:58.141Z,95.27
2018-11-13T03:23:27.587Z,95.13
2018-11-13T03:25:57.080Z,94.96
2018-11-13T03:28:26.515Z,95.02
2018-11-13T03:30:56.095Z,94.95
2018-11-13T03:33:25.488Z,95.22
2018-11-13T03:35:54.905Z,94.81
2018-11-13T03:38:24.326Z,94.79
2018-11-13T03:40:53.787Z,95.12
2018-11-13T03:43:23.244Z,95.08
2018-11-13T03:45:52.671Z,95.09
2018-11-13T03:48:22.217Z,94.40
2018-11-13T03:50:51.659Z,94.86
2018-11-13T03:53:21.107Z,94.81
2018-11-13T03:55:50.540Z,95.17
2018-11-13T03:58:19.971Z,94.54
2018-11-13T04:00:49.363Z,95.02
2018-11-13T04:03:18.818Z,95.34
2018-11-13T04:05:48.259Z,94.90
2018-11-13T04:08:17.707Z,95.39
2018-11-13T04:10:47.199Z,95.06
2018-11-13T04:13:16.616Z,95.18
2018-11-13T04:15:46.029Z,95.62
2018-11-13T04:18:15.504Z,95.29
2018-11-13T04:20:44.926Z,95.08
2018-11-13T04:23:14.330Z,95.05
2018-11-13T04:25:43.842Z,95.54
2018-11-13T04:28:13.364Z,95.30
2018-11-13T04:30:42.868Z,95.75
2018-11-13T04:33:12.722Z,95.70
2018-11-13T04:35:42.379Z,96.15
2018-11-13T04:38:11.810Z,95.84
2018-11-13T04:40:41.239Z,95.50
2018-11-13T04:43:10.686Z,95.67
2018-11-13T04:45:40.091Z,95.26
2018-11-13T04:48:09.527Z,95.50
2018-11-13T04:50:38.974Z,95.34
2018-11-13T04:53:08.435Z,96.01
2018-11-13T04:55:37.870Z,95.53
2018-11-13T04:58:07.691Z,95.83
2018-11-13T05:00:37.251Z,95.60
2018-11-13T05:03:06.795Z,96.04
2018-11-13T05:05:36.295Z,95.91
2018-11-13T05:08:06.094Z,95.79
2018-11-13T05:10:35.476Z,95.51
2018-11-13T05:13:05.252Z,95.54
2018-11-13T05:15:34.673Z,95.75
2018-11-13T05:18:04.135Z,95.50
2018-11-13T05:20:33.769Z,95.96
2018-11-13T05:23:03.170Z,96.09
2018-11-13T05:25:32.624Z,95.58
2018-11-13T05:28:02.128Z,95.81
2018-11-13T05:30:31.627Z,95.58
2018-11-13T05:33:01.316Z,95.62
2018-11-13T05:35:30.729Z,95.43
2018-11-13T05:38:00.107Z,95.58
2018-11-13T05:40:29.592Z,95.61
2018-11-13T05:42:59.219Z,95.77
2018-11-13T05:45:28.724Z,96.03
2018-11-13T05:47:58.215Z,95.83
2018-11-13T05:50:27.620Z,95.71
2018-11-13T05:52:57.128Z,95.11
2018-11-13T05:55:26.623Z,95.49
2018-11-13T05:57:56.074Z,95.24
2018-11-13T06:00:30.624Z,95.30
2018-11-13T06:03:00.594Z,95.38
2018-11-13T06:05:30.331Z,95.93
2018-11-13T06:07:59.794Z,95.31
2018-11-13T06:10:29.280Z,95.68
2018-11-13T06:12:58.755Z,95.40
2018-11-13T06:15:28.345Z,95.28
2018-11-13T06:17:58.269Z,95.50
2018-11-13T06:20:27.713Z,95.34
2018-11-13T06:22:57.555Z,95.49
2018-11-13T06:25:27.120Z,95.20
2018-11-13T06:27:56.743Z,95.52
2018-11-13T06:30:26.956Z,95.41
2018-11-13T06:32:56.534Z,95.42
2018-11-13T06:35:26.064Z,95.42
2018-11-13T06:37:55.532Z,95.25
2018-11-13T06:40:25.523Z,95.05
2018-11-13T06:42:55.143Z,94.75
2018-11-13T06:45:24.725Z,94.87
2018-11-13T06:47:54.199Z,95.12
2018-11-13T06:50:23.757Z,95.29
2018-11-13T06:52:53.248Z,95.17
2018-11-13T06:55:28.018Z,95.16
2018-11-13T06:57:57.528Z,94.85
2018-11-13T07:00:26.937Z,94.88
2018-11-13T07:02:56.487Z,95.03
2018-11-13T07:05:25.989Z,94.87
2018-11-13T07:07:55.759Z,94.70
2018-11-13T07:10:26.260Z,94.15
2018-11-13T07:12:56.699Z,93.88
2018-11-13T07:15:28.453Z,93.41
2018-11-13T07:18:00.265Z,93.88
2018-11-13T07:20:30.936Z,93.95
2018-11-13T07:23:00.362Z,93.50
2018-11-13T07:25:29.839Z,93.30
2018-11-13T07:27:59.242Z,92.25
2018-11-13T07:30:29.055Z,92.27
2018-11-13T07:32:58.516Z,92.07
2018-11-13T07:35:27.937Z,91.79
2018-11-13T07:37:58.888Z,91.97
2018-11-13T07:40:28.336Z,91.43
2018-11-13T07:42:57.883Z,91.32
2018-11-13T07:45:27.314Z,90.26
2018-11-13T07:47:56.763Z,90.56
2018-11-13T07:50:26.128Z,89.70
2018-11-13T07:52:55.674Z,89.91
2018-11-13T07:55:25.111Z,89.19
2018-11-13T07:57:54.576Z,88.88
2018-11-13T08:00:24.943Z,88.47
2018-11-13T08:02:55.652Z,87.61
2018-11-13T08:05:25.166Z,87.33
2018-11-13T08:07:54.646Z,86.97
2018-11-13T08:10:24.156Z,87.21
2018-11-13T08:12:53.806Z,86.73
2018-11-13T08:15:23.207Z,86.24
2018-11-13T08:17:52.637Z,86.94
2018-11-13T08:20:22.058Z,86.30
2018-11-13T08:22:51.472Z,86.92
2018-11-13T08:25:21.006Z,86.35
2018-11-13T08:27:50.434Z,86.29
2018-11-13T08:30:20.055Z,86.47
2018-11-13T08:32:49.507Z,85.86
2018-11-13T08:35:18.960Z,84.66
2018-11-13T08:37:48.457Z,85.30
2018-11-13T08:40:18.867Z,84.82
2018-11-13T08:42:48.404Z,84.73
2018-11-13T08:45:18.552Z,84.40
2018-11-13T08:47:48.016Z,84.68
2018-11-13T08:50:17.604Z,83.73
2018-11-13T08:52:47.819Z,84.15
2018-11-13T08:55:17.383Z,83.85
2018-11-13T08:57:46.875Z,83.92
2018-11-13T09:00:17.513Z,83.55
2018-11-13T09:02:47.673Z,82.81
2018-11-13T09:05:17.320Z,82.72
2018-11-13T09:07:46.810Z,82.62
2018-11-13T09:10:17.623Z,82.55
2018-11-13T09:12:47.574Z,83.11
2018-11-13T09:15:19.418Z,82.54
2018-11-13T09:17:48.884Z,82.83
2018-11-13T09:20:19.710Z,83.20
2018-11-13T09:22:49.264Z,84.00
2018-11-13T09:25:19.933Z,84.63
2018-11-13T09:27:49.551Z,83.55
2018-11-13T09:30:20.449Z,83.94
2018-11-13T09:32:50.053Z,83.47
2018-11-13T09:35:20.062Z,82.76
2018-11-13T09:37:49.732Z,83.54
2018-11-13T09:40:20.987Z,84.07
2018-11-13T09:42:52.262Z,82.07
2018-11-13T09:45:21.820Z,82.53
2018-11-13T09:47:51.337Z,82.92
2018-11-13T09:50:21.987Z,82.49
2018-11-13T09:52:52.505Z,82.45
2018-11-13T09:55:23.094Z,82.27
2018-11-13T09:57:52.740Z,82.59
2018-11-13T10:00:24.772Z,82.79
2018-11-13T10:02:57.526Z,82.86
2018-11-13T10:05:26.602Z,83.89
2018-11-13T10:07:56.551Z,83.62
2018-11-13T10:10:26.807Z,83.81
2018-11-13T10:12:56.697Z,83.92
2018-11-13T10:15:28.015Z,83.55
2018-11-13T10:17:57.770Z,83.01
2018-11-13T10:20:27.188Z,82.95
2018-11-13T10:22:57.997Z,82.99
2018-11-13T10:25:27.487Z,83.47
2018-11-13T10:27:56.935Z,83.15
2018-11-13T10:30:26.427Z,83.86
2018-11-13T10:32:55.989Z,83.92
2018-11-13T10:35:26.447Z,84.07
2018-11-13T10:37:55.931Z,83.40
2018-11-13T10:40:25.755Z,83.81
2018-11-13T10:42:55.324Z,83.80
2018-11-13T10:45:26.141Z,83.48
2018-11-13T10:47:55.613Z,83.69
2018-11-13T10:50:26.223Z,83.73
2018-11-13T10:52:55.895Z,84.59
2018-11-13T10:55:25.338Z,84.65
2018-11-13T10:57:55.361Z,85.12
2018-11-13T11:00:32.759Z,84.40
2018-11-13T11:03:09.586Z,84.95
2018-11-13T11:05:39.125Z,84.39
2018-11-13T11:08:08.747Z,83.13
2018-11-13T11:10:38.480Z,84.69
2018-11-13T11:13:08.273Z,84.25
2018-11-13T11:15:37.866Z,83.71
2018-11-13T11:18:07.517Z,83.59
2018-11-13T11:20:37.063Z,83.90
2018-11-13T11:23:06.602Z,83.83
2018-11-13T11:25:36.285Z,83.82
2018-11-13T11:28:05.851Z,83.34
2018-11-13T11:30:35.328Z,83.00
2018-11-13T11:33:04.947Z,82.84
2018-11-13T11:35:34.544Z,83.54
2018-11-13T11:38:04.058Z,83.16
2018-11-13T11:40:33.587Z,83.17
2018-11-13T11:43:03.151Z,83.37
2018-11-13T11:45:32.674Z,82.85
2018-11-13T11:48:02.175Z,82.96
2018-11-13T11:50:31.743Z,82.66
2018-11-13T11:53:01.207Z,82.46
2018-11-13T11:55:30.703Z,83.22
2018-11-13T11:58:00.197Z,81.74
2018-11-13T12:00:30.331Z,82.35
2018-11-13T12:02:59.795Z,83.50
2018-11-13T12:05:29.304Z,82.98
2018-11-13T12:07:58.777Z,83.10
2018-11-13T12:10:28.241Z,83.15
2018-11-13T12:12:57.783Z,82.93
2018-11-13T12:15:27.256Z,81.96
2018-11-13T12:17:56.757Z,82.50
2018-11-13T12:20:26.221Z,83.65
2018-11-13T12:22:55.773Z,83.77
2018-11-13T12:25:25.203Z,83.85
2018-11-13T12:27:54.706Z,83.80
2018-11-13T12:30:24.898Z,83.34
2018-11-13T12:32:54.410Z,82.70
2018-11-13T12:35:23.882Z,83.04
2018-11-13T12:37:53.397Z,83.33
2018-11-13T12:40:24.055Z,83.60
2018-11-13T12:42:53.697Z,83.14
2018-11-13T12:45:23.209Z,83.01
2018-11-13T12:47:52.689Z,83.86
2018-11-13T12:50:22.239Z,84.42
2018-11-13T12:52:51.731Z,85.53
2018-11-13T12:55:22.791Z,85.72
2018-11-13T12:57:52.530Z,85.06
2018-11-13T13:00:24.057Z,86.29
2018-11-13T13:02:53.954Z,85.52
2018-11-13T13:05:23.552Z,86.07
2018-11-13T13:07:53.219Z,86.04
2018-11-13T13:10:23.151Z,86.93
2018-11-13T13:12:52.943Z,86.94
2018-11-13T13:15:23.224Z,88.10
2018-11-13T13:17:52.665Z,87.35
2018-11-13T13:20:23.547Z,88.49
2018-11-13T13:22:53.233Z,88.02
2018-11-13T13:25:23.747Z,88.41
2018-11-13T13:27:53.290Z,88.48
2018-11-13T13:30:26.851Z,89.36
2018-11-13T13:32:56.355Z,89.87
2018-11-13T13:35:44.419Z,89.96
2018-11-13T13:38:13.967Z,90.62
2018-11-13T13:40:44.483Z,90.16
2018-11-13T13:43:14.646Z,90.50
2018-11-13T13:45:44.955Z,90.32
2018-11-13T13:48:14.595Z,91.53
2018-11-13T13:50:44.089Z,91.31
2018-11-13T13:53:14.461Z,91.46
2018-11-13T13:55:44.199Z,90.90
2018-11-13T13:58:14.424Z,91.17
2018-11-13T14:00:44.007Z,91.26
2018-11-13T14:03:14.473Z,90.50
2018-11-13T14:05:44.544Z,89.53
2018-11-13T14:11:20.480Z,88.54
2018-11-13T14:13:49.977Z,89.12
2018-11-13T14:16:19.388Z,88.76
2018-11-13T14:18:48.848Z,89.62
2018-11-13T14:21:18.288Z,89.64
2018-11-13T14:23:47.704Z,90.23
2018-11-13T14:26:17.259Z,90.12
2018-11-13T14:28:47.163Z,89.67
2018-11-13T14:31:16.548Z,89.69
2018-11-13T14:33:45.962Z,89.36
2018-11-13T14:36:15.442Z,89.52
2018-11-13T14:38:44.856Z,89.74
2018-11-13T14:41:14.339Z,89.56
2018-11-13T14:43:43.790Z,88.39
2018-11-13T14:46:13.221Z,88.98
2018-11-13T14:48:42.704Z,88.59
2018-11-13T14:51:12.381Z,88.56
2018-11-13T14:53:41.868Z,87.36
2018-11-13T14:56:11.303Z,87.51
2018-11-13T14:58:40.755Z,87.34
2018-11-13T15:01:10.223Z,87.71
2018-11-13T15:03:39.679Z,87.72
2018-11-13T15:06:09.133Z,87.61
2018-11-13T15:08:38.587Z,87.94
2018-11-13T15:11:08.044Z,88.29
2018-11-13T15:13:37.460Z,88.64
2018-11-13T15:16:06.888Z,88.76
2018-11-13T15:18:36.354Z,88.85
2018-11-13T15:21:05.991Z,88.85
2018-11-13T15:23:35.452Z,88.66
2018-11-13T15:26:05.254Z,88.26
2018-11-13T15:28:34.687Z,88.47
2018-11-13T15:31:05.559Z,88.66
2018-11-13T15:33:38.486Z,88.82
2018-11-13T15:36:09.180Z,89.36
2018-11-13T15:38:39.590Z,89.11
2018-11-13T15:41:09.656Z,89.01
2018-11-13T15:43:39.742Z,88.77
2018-11-13T15:46:10.049Z,89.36
2018-11-13T15:48:40.222Z,89.04
2018-11-13T15:51:10.015Z,89.43
2018-11-13T15:53:39.517Z,89.75
2018-11-13T15:56:09.283Z,89.67
2018-11-13T15:58:38.850Z,89.82
2018-11-13T16:01:08.371Z,89.52
2018-11-13T16:03:40.100Z,89.36
2018-11-13T16:06:09.782Z,89.21
2018-11-13T16:08:39.395Z,89.47
2018-11-13T16:11:08.916Z,89.33
2018-11-13T16:13:38.464Z,89.23
2018-11-13T16:16:07.931Z,89.37
2018-11-13T16:18:37.537Z,88.96
2018-11-13T16:21:07.222Z,88.49
2018-11-13T16:23:36.661Z,88.43
2018-11-13T16:26:06.903Z,88.29
2018-11-13T16:28:36.514Z,88.10
2018-11-13T16:31:06.204Z,87.19
2018-11-13T16:33:35.704Z,87.00
2018-11-13T16:36:05.245Z,87.23
2018-11-13T16:38:34.755Z,87.59
2018-11-13T16:41:04.509Z,87.95
2018-11-13T16:43:33.982Z,87.49
2018-11-13T16:46:03.592Z,88.01
2018-11-13T16:48:33.260Z,87.91
2018-11-13T16:51:02.974Z,88.23
2018-11-13T16:53:36.667Z,88.07
2018-11-13T16:56:06.377Z,89.29
2018-11-13T16:58:35.936Z,90.21
2018-11-13T17:01:05.789Z,90.64
2018-11-13T17:03:35.395Z,90.92
2018-11-13T17:06:05.020Z,91.34
2018-11-13T17:08:34.637Z,91.77
2018-11-13T17:11:04.530Z,91.70
2018-11-13T17:13:34.046Z,91.86
2018-11-13T17:16:03.822Z,91.08
2018-11-13T17:18:33.405Z,90.33
2018-11-13T17:21:03.410Z,90.12
2018-11-13T17:23:33.126Z,89.53
2018-11-13T17:26:02.972Z,89.75
2018-11-13T17:28:32.690Z,89.57
2018-11-13T17:31:02.482Z,89.28
2018-11-13T17:33:32.407Z,88.87
2018-11-13T17:36:01.969Z,89.02
2018-11-13T17:38:31.489Z,88.62
2018-11-13T17:41:01.322Z,88.82
2018-11-13T17:43:30.811Z,88.67
2018-11-13T17:46:00.594Z,88.96
2018-11-13T17:48:30.398Z,88.28
2018-11-13T17:50:59.944Z,88.49
2018-11-13T17:53:29.695Z,87.92
2018-11-13T17:55:59.348Z,88.32
2018-11-13T17:58:28.844Z,87.13
2018-11-13T18:00:58.391Z,87.59
2018-11-13T18:03:28.112Z,87.58
2018-11-13T18:05:57.637Z,87.98
2018-11-13T18:08:27.203Z,87.44
2018-11-13T18:10:56.897Z,87.24
2018-11-13T18:13:26.484Z,87.16
2018-11-13T18:15:56.947Z,86.50
2018-11-13T18:18:27.129Z,86.84
2018-11-13T18:20:56.912Z,86.65
2018-11-13T18:23:26.755Z,86.63
2018-11-13T18:25:56.276Z,86.62
2018-11-13T18:28:25.937Z,86.28
2018-11-13T18:30:55.255Z,86.32
2018-11-13T18:33:24.821Z,86.24
2018-11-13T18:35:54.308Z,86.35
2018-11-13T18:38:23.811Z,86.16
2018-11-13T18:40:53.335Z,86.15
2018-11-13T18:43:22.977Z,86.71
2018-11-13T18:45:52.689Z,86.57
2018-11-13T18:48:22.502Z,86.26
2018-11-13T18:50:52.083Z,85.54
2018-11-13T18:53:21.728Z,85.99
2018-11-13T18:55:51.289Z,86.10
2018-11-13T18:58:20.937Z,86.34
2018-11-13T19:00:50.728Z,85.74
2018-11-13T19:03:20.486Z,86.03
2018-11-13T19:05:50.075Z,85.99
2018-11-13T19:08:21.358Z,85.46
2018-11-13T19:10:51.889Z,85.22
2018-11-13T19:13:23.760Z,84.87
2018-11-13T19:15:57.952Z,85.21
2018-11-13T19:18:27.605Z,84.83
2018-11-13T19:20:57.129Z,84.41
2018-11-13T19:23:26.854Z,83.95
2018-11-13T19:25:56.643Z,84.18
2018-11-13T19:28:26.518Z,84.44
2018-11-13T19:30:57.245Z,84.49
2018-11-13T19:33:27.426Z,84.68
2018-11-13T19:35:57.472Z,84.01
2018-11-13T19:38:27.180Z,84.44
2018-11-13T19:40:57.804Z,84.44
2018-11-13T19:43:27.697Z,85.14
2018-11-13T19:45:58.721Z,85.24
2018-11-13T19:48:28.402Z,84.99
2018-11-13T19:50:59.849Z,85.29
2018-11-13T19:53:29.681Z,85.14
2018-11-13T19:55:59.624Z,85.22
2018-11-13T19:58:29.273Z,85.53
2018-11-13T20:00:59.411Z,85.52
2018-11-13T20:03:29.000Z,85.33
2018-11-13T20:05:59.105Z,85.56
2018-11-13T20:08:30.693Z,85.48
2018-11-13T20:11:00.779Z,85.32
2018-11-13T20:13:30.431Z,85.52
2018-11-13T20:16:00.174Z,85.56
2018-11-13T20:18:29.900Z,84.86
2018-11-13T20:21:00.205Z,85.31
2018-11-13T20:47:29.583Z,85.77
2018-11-13T20:50:01.624Z,85.56
2018-11-13T20:52:32.171Z,85.49
2018-11-13T20:55:02.588Z,85.73
2018-11-13T20:57:32.357Z,84.99
2018-11-13T21:00:02.124Z,85.16
2018-11-13T21:02:35.110Z,85.22
2018-11-13T21:05:05.085Z,85.18
2018-11-13T21:07:35.195Z,84.99
2018-11-13T21:10:05.805Z,84.64
2018-11-13T21:12:35.586Z,84.98
2018-11-13T21:15:06.136Z,84.70
2018-11-13T21:17:35.750Z,84.37
2018-11-13T21:20:07.279Z,84.63
2018-11-13T21:22:37.492Z,84.58
2018-11-13T21:25:09.592Z,84.99
2018-11-13T21:27:39.037Z,84.63
2018-11-13T21:30:14.107Z,84.25
2018-11-13T21:32:44.537Z,84.47
2018-11-13T21:35:14.596Z,84.55
2018-11-13T21:37:45.426Z,84.67
2018-11-13T21:40:16.131Z,84.79
2018-11-13T21:42:46.288Z,84.65
2018-11-13T21:45:16.875Z,84.40
2018-11-13T21:47:46.393Z,84.59
2018-11-13T21:50:17.963Z,84.47
2018-11-13T21:52:50.343Z,85.06
2018-11-13T21:55:21.344Z,85.20
2018-11-13T21:57:51.225Z,84.58
2018-11-13T22:00:26.971Z,85.33
2018-11-13T22:02:58.545Z,84.92
2018-11-13T22:05:29.093Z,84.80
2018-11-13T22:07:59.288Z,85.52
2018-11-13T22:10:28.921Z,85.30
2018-11-13T22:12:58.531Z,85.14
2018-11-13T22:15:29.093Z,85.57
2018-11-13T22:17:59.213Z,85.42
2018-11-13T22:20:28.834Z,85.94
2018-11-13T22:23:00.160Z,85.83
2018-11-13T22:25:30.007Z,85.65
2018-11-13T22:28:00.617Z,85.75
2018-11-13T22:30:31.218Z,85.53
2018-11-13T22:33:00.874Z,86.00
2018-11-13T22:35:30.621Z,86.29
2018-11-13T22:38:00.329Z,86.11
2018-11-13T22:40:30.175Z,85.82
2018-11-13T22:43:01.518Z,86.12
2018-11-13T22:45:31.158Z,86.17
2018-11-13T22:48:01.111Z,86.04
2018-11-13T22:50:31.780Z,86.37
2018-11-13T22:53:01.493Z,86.03
2018-11-13T22:55:31.014Z,86.46
2018-11-13T22:58:01.655Z,86.74
2018-11-13T23:00:39.650Z,87.21
2018-11-13T23:03:11.930Z,87.02
2018-11-13T23:05:41.605Z,87.12
2018-11-13T23:08:12.175Z,87.25
2018-11-13T23:10:41.648Z,87.18
2018-11-13T23:13:11.172Z,87.56
2018-11-13T23:15:40.891Z,88.00
2018-11-13T23:18:10.472Z,87.81
2018-11-13T23:20:40.120Z,88.37
2018-11-13T23:23:09.564Z,87.92
2018-11-13T23:25:39.033Z,88.01
2018-11-13T23:28:08.667Z,87.88
2018-11-13T23:30:38.048Z,88.48
2018-11-13T23:33:08.029Z,88.74
2018-11-13T23:35:37.090Z,88.07
2018-11-13T23:38:06.638Z,88.56
2018-11-13T23:40:36.181Z,88.44
2018-11-13T23:43:05.661Z,88.64
2018-11-13T23:45:35.135Z,88.41
2018-11-13T23:48:08.499Z,88.56
2018-11-13T23:50:37.999Z,88.80
2018-11-13T23:53:07.595Z,88.72
2018-11-13T23:55:37.047Z,88.68
2018-11-13T23:58:06.588Z,89.22
